Map

Track Data

SID SEASON NUMBER BASIN SUBBASIN NAME ISO_TIME NATURE LAT LON WMO_WIND WMO_PRES WMO_AGENCY TRACK_TYPE DIST2LAND LANDFALL IFLAG USA_AGENCY USA_ATCF_ID USA_LAT USA_LON USA_RECORD USA_STATUS USA_WIND USA_PRES USA_SSHS USA_R34_NE USA_R34_SE USA_R34_SW USA_R34_NW USA_R50_NE USA_R50_SE USA_R50_SW USA_R50_NW USA_R64_NE USA_R64_SE USA_R64_SW USA_R64_NW USA_POCI USA_ROCI USA_RMW USA_EYE TOKYO_LAT TOKYO_LON TOKYO_GRADE TOKYO_WIND TOKYO_PRES TOKYO_R50_DIR TOKYO_R50_LONG TOKYO_R50_SHORT TOKYO_R30_DIR TOKYO_R30_LONG TOKYO_R30_SHORT TOKYO_LAND CMA_LAT CMA_LON CMA_CAT CMA_WIND CMA_PRES HKO_LAT HKO_LON HKO_CAT HKO_WIND HKO_PRES NEWDELHI_LAT NEWDELHI_LON NEWDELHI_GRADE NEWDELHI_WIND NEWDELHI_PRES NEWDELHI_CI NEWDELHI_DP NEWDELHI_POCI REUNION_LAT REUNION_LON REUNION_TYPE REUNION_WIND REUNION_PRES REUNION_TNUM REUNION_CI REUNION_RMW REUNION_R34_NE REUNION_R34_SE REUNION_R34_SW REUNION_R34_NW REUNION_R50_NE REUNION_R50_SE REUNION_R50_SW REUNION_R50_NW REUNION_R64_NE REUNION_R64_SE REUNION_R64_SW REUNION_R64_NW BOM_LAT BOM_LON BOM_TYPE BOM_WIND BOM_PRES BOM_TNUM BOM_CI BOM_RMW BOM_R34_NE BOM_R34_SE BOM_R34_SW BOM_R34_NW BOM_R50_NE BOM_R50_SE BOM_R50_SW BOM_R50_NW BOM_R64_NE BOM_R64_SE BOM_R64_SW BOM_R64_NW BOM_ROCI BOM_POCI BOM_EYE BOM_POS_METHOD BOM_PRES_METHOD NADI_LAT NADI_LON NADI_CAT NADI_WIND NADI_PRES WELLINGTON_LAT WELLINGTON_LON WELLINGTON_WIND WELLINGTON_PRES DS824_LAT DS824_LON DS824_STAGE DS824_WIND DS824_PRES TD9636_LAT TD9636_LON TD9636_STAGE TD9636_WIND TD9636_PRES TD9635_LAT TD9635_LON TD9635_WIND TD9635_PRES TD9635_ROCI NEUMANN_LAT NEUMANN_LON NEUMANN_CLASS NEUMANN_WIND NEUMANN_PRES MLC_LAT MLC_LON MLC_CLASS MLC_WIND MLC_PRES USA_GUST BOM_GUST BOM_GUST_PER REUNION_GUST REUNION_GUST_PER USA_SEAHGT USA_SEARAD_NE USA_SEARAD_SE USA_SEARAD_SW USA_SEARAD_NW STORM_SPEED STORM_DIR
1944218N22127 1944 45 WP MM NOT_NAMED 1944-08-05 09:00:00 NR 21.8000 127.000 main 593 575 __________O___ -1 21.8000 127.000 4 16 10
1944218N22127 1944 45 WP MM NOT_NAMED 1944-08-05 12:00:00 NR 22.5672 127.139 main 570 554 __________P___ -1 22.5672 127.139 4 15 9
1944218N22127 1944 45 WP MM NOT_NAMED 1944-08-05 15:00:00 NR 23.2976 127.253 main 564 550 __________P___ -1 23.2976 127.253 4 14 7
1944218N22127 1944 45 WP MM NOT_NAMED 1944-08-05 18:00:00 NR 23.9541 127.315 main 547 537 __________P___ -1 23.9541 127.315 4 12 2
1944218N22127 1944 45 WP MM NOT_NAMED 1944-08-05 21:00:00 NR 24.5000 127.300 main 537 523 __________O___ -1 24.5000 127.300 4 10 353
1944218N22127 1944 45 WP MM NOT_NAMED 1944-08-06 00:00:00 NR 24.9135 127.190 main 523 503 __________P___ -1 24.9135 127.190 4 8 340
1944218N22127 1944 45 WP MM NOT_NAMED 1944-08-06 03:00:00 NR 25.2326 127.011 main 503 484 __________P___ -1 25.2326 127.011 4 7 329
1944218N22127 1944 45 WP MM NOT_NAMED 1944-08-06 06:00:00 NR 25.5104 126.802 main 485 468 __________P___ -1 25.5104 126.802 4 7 327
1944218N22127 1944 45 WP MM NOT_NAMED 1944-08-06 09:00:00 NR 25.8000 126.600 main 470 457 __________O___ -1 25.8000 126.600 4 8 333
1944218N22127 1944 45 WP MM NOT_NAMED 1944-08-06 12:00:00 NR 26.1987 126.409 main 460 454 __________P___ -1 26.1987 126.409 4 9 338
1944218N22127 1944 45 WP MM NOT_NAMED 1944-08-06 15:00:00 NR 26.6149 126.239 main 456 456 __________P___ -1 26.6149 126.239 4 9 343
1944218N22127 1944 45 WP MM NOT_NAMED 1944-08-06 18:00:00 NR 27.0236 126.125 main 465 448 __________P___ -1 27.0236 126.125 4 8 351
1944218N22127 1944 45 WP MM NOT_NAMED 1944-08-06 21:00:00 NR 27.4000 126.100 main 448 438 __________O___ -1 27.4000 126.100 4 7 8
1944218N22127 1944 45 WP MM NOT_NAMED 1944-08-07 00:00:00 NR 27.7152 126.222 main 442 442 __________P___ -1 27.7152 126.222 4 7 26
1944218N22127 1944 45 WP MM NOT_NAMED 1944-08-07 03:00:00 NR 27.9954 126.431 main 449 449 __________P___ -1 27.9954 126.431 4 7 37
1944218N22127 1944 45 WP MM NOT_NAMED 1944-08-07 06:00:00 NR 28.2528 126.675 main 467 437 __________P___ -1 28.2528 126.675 4 7 39
1944218N22127 1944 45 WP MM NOT_NAMED 1944-08-07 09:00:00 NR 28.5000 126.900 main 437 422 __________O___ -1 28.5000 126.900 4 5 29
1944218N22127 1944 45 WP MM NOT_NAMED 1944-08-07 12:00:00 NR 28.6786 126.936 main 422 400 __________P___ -1 28.6786 126.936 4 4 9
1944218N22127 1944 45 WP MM NOT_NAMED 1944-08-07 15:00:00 NR 28.8625 126.958 main 400 386 __________P___ -1 28.8625 126.958 4 5 13
1944218N22127 1944 45 WP MM NOT_NAMED 1944-08-07 18:00:00 NR 29.1153 127.051 main 378 336 __________P___ -1 29.1153 127.051 4 7 25
1944218N22127 1944 45 WP MM NOT_NAMED 1944-08-07 21:00:00 NR 29.5000 127.300 main 336 260 __________O___ -1 29.5000 127.300 4 12 34
1944218N22127 1944 45 WP MM NOT_NAMED 1944-08-08 00:00:00 NR 30.0942 127.816 main 260 167 __________P___ -1 30.0942 127.816 4 17 38
1944218N22127 1944 45 WP MM NOT_NAMED 1944-08-08 03:00:00 NR 30.8175 128.500 main 167 97 __________P___ -1 30.8175 128.500 4 20 40
1944218N22127 1944 45 WP MM NOT_NAMED 1944-08-08 06:00:00 NR 31.6066 129.285 main 87 24 __________P___ -1 31.6066 129.285 4 21 41
1944218N22127 1944 45 WP MM NOT_NAMED 1944-08-08 09:00:00 NR 32.4000 130.100 main 24 0 __________O___ -1 32.4000 130.100 7 19 39
1944218N22127 1944 45 WP MM NOT_NAMED 1944-08-08 12:00:00 NR 33.1002 130.729 main 0 0 __________P___ -1 33.1002 130.729 7 18 38
1944218N22127 1944 45 WP MM NOT_NAMED 1944-08-08 15:00:00 NR 33.7962 131.384 main 14 0 __________P___ -1 33.7962 131.384 7 18 40
1944218N22127 1944 45 WP MM NOT_NAMED 1944-08-08 18:00:00 NR 34.4945 132.147 main 0 0 __________P___ -1 34.4945 132.147 7 20 45
1944218N22127 1944 45 WP MM NOT_NAMED 1944-08-08 21:00:00 NR 35.2000 133.100 main 0 0 __________O___ -1 35.2000 133.100 7 23 52
1944218N22127 1944 45 WP MM NOT_NAMED 1944-08-09 00:00:00 NR 35.9023 134.382 main 33 33 __________P___ -1 35.9023 134.382 7 26 58
1944218N22127 1944 45 WP MM NOT_NAMED 1944-08-09 03:00:00 NR 36.6015 135.862 main 37 0 __________P___ -1 36.6015 135.862 7 28 60
1944218N22127 1944 45 WP MM NOT_NAMED 1944-08-09 06:00:00 NR 37.2985 137.438 main 17 8 __________P___ -1 37.2985 137.438 7 29 61
1944218N22127 1944 45 WP MM NOT_NAMED 1944-08-09 09:00:00 NR 38.0000 139.000 main 11 0 __________O___ -1 38.0000 139.000 7 28 59
1944218N22127 1944 45 WP MM NOT_NAMED 1944-08-09 12:00:00 NR 38.7149 140.464 main 0 0 __________P___ -1 38.7149 140.464 7 26 57
1944218N22127 1944 45 WP MM NOT_NAMED 1944-08-09 15:00:00 NR 39.4416 141.844 main 0 0 __________P___ -1 39.4416 141.844 7 25 55
1944218N22127 1944 45 WP MM NOT_NAMED 1944-08-09 18:00:00 NR 40.1731 143.177 main 111 111 __________P___ -1 40.1731 143.177 7 25 54
1944218N22127 1944 45 WP MM NOT_NAMED 1944-08-09 21:00:00 NR 40.9000 144.500 main 155 __________O___ -1 40.9000 144.500 7 25 54

Digital Typhoon Data and Search

About IBTrACS Database

This database is a web-friendly format of International Best Track Archive for Climate Stewardship (IBTrACS), a global best track data archive curated by NOAA dating back to 1842.

Updated: 2021-10-08